Time;durP1;ratioP1;P1;durP2;ratioP2;P2;SDS_P1;SDS_P2;PMS_P1;PMS_P2;Temp;Humidity;BMP_temperature;BMP_pressure;BME280_temperature;BME280_humidity;BME280_pressure;Samples;Min_cycle;Max_cycle;Signal;HPM_P1;HPM_P2
2022/06/20 00:01:19;;;;;;;9.70;2.60;;;;;;;8.44;100.00;98620.47;5082708;28;20017;-92
2022/06/20 00:03:48;;;;;;;9.25;2.22;;;;;;;8.38;100.00;98616.16;5070997;28;20100;-92
2022/06/20 00:06:18;;;;;;;8.35;2.22;;;;;;;8.33;100.00;98606.66;5061201;28;20037;-91
2022/06/20 00:08:43;;;;;;;11.30;2.70;;;;;;;8.29;100.00;98612.72;5055128;28;20108;-92
2022/06/20 00:11:37;;;;;;;7.72;2.10;;;;;;;8.31;100.00;98616.16;5052494;28;20028;-91
2022/06/20 00:14:03;;;;;;;9.57;2.28;;;;;;;8.29;100.00;98607.53;5048631;28;20200;-93
2022/06/20 00:16:33;;;;;;;8.48;2.17;;;;;;;8.25;100.00;98609.25;5050353;28;20036;-90
2022/06/20 00:18:58;;;;;;;12.43;2.53;;;;;;;8.15;100.00;98607.56;5047416;28;20051;-92
2022/06/20 00:21:24;;;;;;;9.25;2.13;;;;;;;8.06;100.00;98616.22;5050467;28;20028;-91
2022/06/20 00:23:53;;;;;;;10.73;2.53;;;;;;;8.08;100.00;98617.09;5062227;28;20040;-91
2022/06/20 00:26:19;;;;;;;8.48;2.25;;;;;;;8.04;100.00;98607.56;5047052;28;20039;-91
2022/06/20 00:28:45;;;;;;;9.07;2.30;;;;;;;8.02;100.00;98611.91;5048360;28;20469;-91
2022/06/20 00:31:11;;;;;;;10.93;2.30;;;;;;;8.02;100.00;98604.13;5069455;28;20491;-90
2022/06/20 00:33:37;;;;;;;8.60;2.50;;;;;;;8.03;100.00;98606.72;5045672;28;20112;-91
2022/06/20 00:36:03;;;;;;;7.30;2.40;;;;;;;8.01;100.00;98607.56;5047425;28;20119;-91
2022/06/20 00:38:29;;;;;;;9.95;2.40;;;;;;;8.02;100.00;98604.97;5045833;28;20041;-90
2022/06/20 00:41:07;;;;;;;11.73;2.17;;;;;;;7.98;100.00;98600.66;5063558;28;20118;-91
2022/06/20 00:43:45;;;;;;;9.82;2.13;;;;;;;7.79;100.00;98594.59;5049762;28;20021;-91
2022/06/20 00:46:43;;;;;;;12.18;2.53;;;;;;;7.93;100.00;98606.72;5052701;28;20036;-91
2022/06/20 00:49:21;;;;;;;8.43;2.13;;;;;;;7.91;100.00;98605.88;5048045;28;20117;-91
2022/06/20 00:51:59;;;;;;;9.02;2.03;;;;;;;7.82;100.00;98601.53;5052407;28;20039;-91
2022/06/20 00:54:36;;;;;;;10.70;2.20;;;;;;;7.83;100.00;98611.03;5064787;28;20110;-91
2022/06/20 00:57:10;;;;;;;8.45;2.20;;;;;;;7.74;100.00;98611.03;5047837;28;20032;-90
2022/06/20 00:59:42;;;;;;;11.50;2.33;;;;;;;7.64;100.00;98617.97;5063224;28;20054;-91
2022/06/20 01:02:11;;;;;;;10.47;2.30;;;;;;;7.62;100.00;98622.28;5048953;28;20060;-90
2022/06/20 01:04:53;;;;;;;9.40;2.05;;;;;;;7.59;100.00;98624.91;5064061;28;20031;-90
2022/06/20 01:07:26;;;;;;;9.90;2.95;;;;;;;7.59;100.00;98624.91;5045384;28;20032;-90
2022/06/20 01:09:56;;;;;;;6.45;1.88;;;;;;;7.61;100.00;98634.41;5061038;28;20035;-91
2022/06/20 01:12:25;;;;;;;8.05;2.17;;;;;;;7.58;100.00;98637.00;5046544;28;20032;-89
2022/06/20 01:14:50;;;;;;;9.20;2.50;;;;;;;7.49;100.00;98637.84;5066029;28;20505;-91
2022/06/20 01:17:19;;;;;;;10.98;2.60;;;;;;;7.56;100.00;98646.53;5047811;28;20047;-90
2022/06/20 01:19:54;;;;;;;9.60;2.50;;;;;;;7.58;100.00;98646.50;5048982;28;20036;-90
2022/06/20 01:22:41;;;;;;;8.75;2.35;;;;;;;7.52;100.00;98650.81;5060441;28;20040;-90
2022/06/20 01:25:38;;;;;;;7.63;2.08;;;;;;;7.39;100.00;98651.69;5059205;28;20090;-91
2022/06/20 01:28:09;;;;;;;9.93;2.45;;;;;;;7.45;100.00;98656.03;5046053;28;20508;-90
2022/06/20 01:30:39;;;;;;;7.13;2.08;;;;;;;7.43;100.00;98649.94;5052719;28;20033;-90
2022/06/20 01:33:05;;;;;;;13.05;2.38;;;;;;;7.51;100.00;98654.31;5048887;28;20501;-92
2022/06/20 01:38:18;;;;;;;11.82;2.35;;;;;;;7.58;100.00;98646.50;5055044;28;20080;-90
2022/06/20 01:43:31;;;;;;;10.10;2.80;;;;;;;7.49;100.00;98643.03;5069372;28;20032;-89
2022/06/20 01:46:01;;;;;;;9.85;2.55;;;;;;;7.44;100.00;98642.16;5056744;28;20112;-89
2022/06/20 01:48:31;;;;;;;10.43;2.47;;;;;;;7.37;100.00;98642.16;5052097;28;20041;-88
2022/06/20 01:50:58;;;;;;;11.15;2.42;;;;;;;7.34;100.00;98640.41;5047508;28;20103;-90
2022/06/20 01:53:31;;;;;;;14.88;2.65;;;;;;;7.33;100.00;98642.16;5067966;28;20029;-88
2022/06/20 01:55:57;;;;;;;;;;;;;;;7.29;100.00;98635.25;5075356;28;20029;-90
2022/06/20 01:58:29;;;;;;;9.80;2.22;;;;;;;7.20;100.00;98632.59;5065782;28;19972;-90
2022/06/20 02:00:56;;;;;;;8.75;2.30;;;;;;;7.43;100.00;98632.66;5063641;28;20038;-90
2022/06/20 02:03:22;;;;;;;10.15;2.50;;;;;;;7.16;100.00;98629.13;5054583;28;20409;-90
2022/06/20 02:05:54;;;;;;;6.57;2.25;;;;;;;7.28;100.00;98630.03;5059065;28;20028;-90
2022/06/20 02:08:22;;;;;;;11.90;2.90;;;;;;;7.21;100.00;98641.25;5060803;28;20020;-90
2022/06/20 02:10:56;;;;;;;9.77;2.70;;;;;;;7.30;100.00;98643.88;5078603;28;20051;-90
2022/06/20 02:13:26;;;;;;;10.45;2.40;;;;;;;7.23;100.00;98639.53;5063458;28;20052;-90
2022/06/20 02:15:57;;;;;;;10.48;2.63;;;;;;;7.28;100.00;98643.88;5051200;28;20051;-90
2022/06/20 02:18:23;;;;;;;9.15;2.63;;;;;;;7.33;100.00;98636.09;5053929;28;20047;-90
2022/06/20 02:20:52;;;;;;;10.50;2.70;;;;;;;7.33;100.00;98647.34;5072863;28;20490;-89
2022/06/20 02:23:22;;;;;;;10.20;2.50;;;;;;;7.30;100.00;98638.69;5064669;28;20101;-89
2022/06/20 02:25:52;;;;;;;10.15;2.80;;;;;;;7.36;100.00;98643.88;5062445;28;20475;-89
2022/06/20 02:28:28;;;;;;;11.70;2.83;;;;;;;7.38;100.00;98649.09;5049613;28;20036;-90
2022/06/20 02:30:53;;;;;;;10.13;2.80;;;;;;;7.40;100.00;98657.72;5046864;28;20116;-89
2022/06/20 02:33:25;;;;;;;8.27;2.20;;;;;;;7.41;100.00;98644.75;5046974;28;20119;-90
2022/06/20 02:35:54;;;;;;;9.25;2.50;;;;;;;7.49;100.00;98647.38;5058053;28;20762;-90
2022/06/20 02:38:21;;;;;;;10.18;2.22;;;;;;;7.48;100.00;98646.50;5058950;28;20847;-90
2022/06/20 02:40:48;;;;;;;8.05;2.35;;;;;;;7.52;100.00;98631.81;5064086;28;20678;-88
2022/06/20 02:43:30;;;;;;;12.35;2.90;;;;;;;7.48;100.00;98638.72;5045735;28;20777;-90
2022/06/20 02:45:58;;;;;;;10.25;2.80;;;;;;;7.52;100.00;98629.22;5050957;28;20059;-89
2022/06/20 02:48:27;;;;;;;8.63;2.40;;;;;;;7.57;100.00;98642.19;5042007;28;20033;-89
2022/06/20 02:51:00;;;;;;;10.10;2.72;;;;;;;7.52;100.00;98642.19;5048079;28;20106;-89
2022/06/20 02:53:34;;;;;;;;;;;;;;;7.55;100.00;98642.19;5049887;28;20418;-89
2022/06/20 02:56:01;;;;;;;9.32;2.13;;;;;;;7.52;100.00;98642.19;5055507;28;20017;-90
2022/06/20 02:58:31;;;;;;;10.27;2.25;;;;;;;7.48;100.00;98646.50;5047018;28;20075;-90
2022/06/20 03:01:23;;;;;;;8.90;2.30;;;;;;;7.44;100.00;98643.91;5049632;28;20029;-89
2022/06/20 03:03:54;;;;;;;10.13;2.80;;;;;;;7.45;100.00;98645.63;5052168;28;20020;-89
2022/06/20 03:06:49;;;;;;;10.98;2.38;;;;;;;7.38;100.00;98643.91;5052676;28;20051;-89
2022/06/20 03:09:18;;;;;;;9.00;2.30;;;;;;;7.34;100.00;98650.81;5051594;28;20032;-90
2022/06/20 03:11:44;;;;;;;10.80;2.50;;;;;;;7.26;100.00;98657.69;5045043;28;20491;-90
2022/06/20 03:14:16;;;;;;;9.50;2.50;;;;;;;7.18;100.00;98666.31;5056941;28;20093;-89
2022/06/20 03:16:42;;;;;;;9.15;2.50;;;;;;;7.06;100.00;98674.06;5047988;28;20037;-90
2022/06/20 03:19:22;;;;;;;8.75;2.55;;;;;;;7.00;100.00;98677.50;5047430;28;20119;-89
2022/06/20 03:21:49;;;;;;;12.93;2.47;;;;;;;6.91;100.00;98684.38;5067727;28;20556;-90
2022/06/20 03:24:18;;;;;;;8.35;2.53;;;;;;;6.74;100.00;98692.94;5058948;28;20442;-90
2022/06/20 03:26:44;;;;;;;10.05;2.70;;;;;;;6.63;100.00;98697.19;5046961;28;20021;-90
2022/06/20 03:29:16;;;;;;;10.55;2.28;;;;;;;6.58;100.00;98704.94;5050831;28;20047;-89
2022/06/20 03:31:42;;;;;;;13.20;2.97;;;;;;;6.52;100.00;98712.66;5048510;28;20055;-89
2022/06/20 03:34:08;;;;;;;8.65;2.35;;;;;;;6.60;100.00;98717.91;5053702;28;20405;-90
2022/06/20 03:36:34;;;;;;;10.88;2.35;;;;;;;6.57;100.00;98728.22;5046352;28;20089;-89
2022/06/20 03:39:01;;;;;;;7.78;2.60;;;;;;;6.53;100.00;98731.66;5057483;28;20568;-90
2022/06/20 03:41:29;;;;;;;6.78;2.25;;;;;;;6.55;100.00;98751.53;5049713;28;20102;-90
2022/06/20 03:44:09;;;;;;;8.88;2.53;;;;;;;6.53;100.00;98753.28;5059195;28;20024;-89
2022/06/20 03:46:53;;;;;;;7.97;2.65;;;;;;;6.59;100.00;98760.22;5068382;28;20028;-89
2022/06/20 03:49:50;;;;;;;10.98;2.60;;;;;;;6.55;100.00;98758.47;5055046;28;20029;-90
2022/06/20 03:52:22;;;;;;;8.98;2.53;;;;;;;6.62;100.00;98755.91;5049764;28;20065;-91
2022/06/20 03:55:17;;;;;;;8.45;2.20;;;;;;;6.66;100.00;98756.81;5063525;28;20132;-90
2022/06/20 03:57:54;;;;;;;9.07;2.42;;;;;;;6.69;100.00;98756.81;5050895;28;20055;-89
2022/06/20 04:00:28;;;;;;;8.82;2.50;;;;;;;6.77;100.00;98765.50;5052049;28;20797;-89
2022/06/20 04:03:05;;;;;;;11.57;2.58;;;;;;;6.82;100.00;98760.38;5070854;28;20033;-89
2022/06/20 04:05:39;;;;;;;10.52;2.80;;;;;;;6.92;100.00;98758.72;5050482;28;20029;-90
2022/06/20 04:08:16;;;;;;;8.05;2.25;;;;;;;7.02;100.00;98757.03;5054495;28;20020;-92
2022/06/20 04:10:57;;;;;;;9.50;2.40;;;;;;;7.14;100.00;98764.84;5075329;28;20048;-92
2022/06/20 04:13:59;;;;;;;9.45;2.65;;;;;;;7.22;100.00;98760.56;5057210;28;20036;-92
2022/06/20 04:16:50;;;;;;;11.13;2.55;;;;;;;7.40;100.00;98766.69;5051740;28;20041;-92
2022/06/20 04:19:23;;;;;;;8.85;2.25;;;;;;;7.52;100.00;98775.38;5051165;28;20639;-92
2022/06/20 04:21:57;;;;;;;8.18;2.40;;;;;;;7.65;100.00;98772.84;5064907;28;20685;-92
2022/06/20 04:24:29;;;;;;;10.57;2.50;;;;;;;7.68;100.00;98772.84;5071102;28;20036;-92
2022/06/20 04:27:17;;;;;;;11.45;2.65;;;;;;;8.27;100.00;98765.16;5053814;28;20020;-92
2022/06/20 04:29:48;;;;;;;8.50;2.40;;;;;;;7.86;100.00;98767.72;5054813;28;20743;-92
2022/06/20 04:32:39;;;;;;;9.82;2.53;;;;;;;7.89;100.00;98776.34;5061471;28;20058;-92
2022/06/20 04:35:10;;;;;;;8.20;2.35;;;;;;;7.94;100.00;98777.25;5068482;28;20039;-92
2022/06/20 04:37:43;;;;;;;9.43;2.45;;;;;;;8.01;100.00;98776.38;5069972;28;20494;-91
2022/06/20 04:40:20;;;;;;;11.40;2.43;;;;;;;8.11;100.00;98779.84;5060181;28;20420;-93
2022/06/20 04:43:01;;;;;;;11.98;2.70;;;;;;;8.14;100.00;98774.66;5056655;28;20364;-92
2022/06/20 04:45:38;;;;;;;8.23;2.28;;;;;;;8.13;100.00;98772.94;5065175;28;20020;-91
2022/06/20 04:48:30;;;;;;;10.00;2.28;;;;;;;8.05;100.00;98778.13;5075558;28;20033;-92
2022/06/20 04:51:05;;;;;;;9.10;2.00;;;;;;;7.96;100.00;98781.56;5060531;28;20067;-91
2022/06/20 04:53:34;;;;;;;10.40;2.33;;;;;;;7.91;100.00;98790.22;5079150;28;20094;-91
2022/06/20 04:56:04;;;;;;;9.63;2.30;;;;;;;7.83;100.00;98787.59;5058279;28;20080;-91
2022/06/20 04:58:44;;;;;;;10.27;2.45;;;;;;;7.89;100.00;98794.53;5061394;28;20024;-91
2022/06/20 05:01:10;;;;;;;9.07;2.58;;;;;;;7.81;100.00;98797.97;5056618;28;20031;-93
2022/06/20 05:03:43;;;;;;;12.18;2.30;;;;;;;7.82;100.00;98799.72;5059915;28;20043;-90
2022/06/20 05:06:20;;;;;;;9.63;2.58;;;;;;;7.78;100.00;98799.69;5063219;28;20124;-93
2022/06/20 05:08:50;;;;;;;9.40;2.22;;;;;;;7.74;100.00;98792.75;5090710;28;20211;-92
2022/06/20 05:11:18;;;;;;;7.25;2.13;;;;;;;7.79;100.00;98797.09;5077615;28;20020;-92
2022/06/20 05:13:59;;;;;;;9.32;2.33;;;;;;;7.83;100.00;98795.38;5079981;28;20056;-92
2022/06/20 05:16:29;;;;;;;10.45;2.13;;;;;;;7.80;100.00;98798.84;5058704;28;20025;-92
2022/06/20 05:19:00;;;;;;;10.55;2.58;;;;;;;7.85;100.00;98796.28;5056837;28;20059;-91
2022/06/20 05:21:53;;;;;;;9.48;2.47;;;;;;;7.88;100.00;98796.28;5081312;28;20032;-91
2022/06/20 05:24:27;;;;;;;7.50;2.25;;;;;;;7.90;100.00;98794.53;5082447;28;20028;-93
2022/06/20 05:26:54;;;;;;;;;;;;;;;7.92;100.00;98795.41;5075618;28;20028;-92
2022/06/20 05:29:36;;;;;;;9.77;2.40;;;;;;;8.00;100.00;98800.59;5086790;28;19926;-92
2022/06/20 05:32:06;;;;;;;7.82;2.15;;;;;;;8.00;100.00;98792.81;5059669;28;20030;-93
2022/06/20 05:38:11;;;;;;;9.10;2.10;;;;;;;8.05;100.00;98793.69;5056446;28;20151;-92
2022/06/20 05:40:42;;;;;;;8.82;2.45;;;;;;;8.07;100.00;98802.34;5055764;28;20033;-91
2022/06/20 05:43:21;;;;;;;10.93;2.08;;;;;;;8.07;100.00;98804.94;5058055;28;20072;-93
2022/06/20 05:45:57;;;;;;;9.05;2.30;;;;;;;8.23;100.00;98807.59;5061013;28;20064;-92
2022/06/20 05:48:40;;;;;;;7.07;2.25;;;;;;;8.32;100.00;98807.59;5064708;28;20021;-92
2022/06/20 05:51:08;;;;;;;10.10;2.60;;;;;;;8.38;100.00;98807.59;5071258;28;20032;-91
2022/06/20 05:53:45;;;;;;;9.38;2.55;;;;;;;8.46;100.00;98816.31;5073309;28;20029;-92
2022/06/20 05:56:31;;;;;;;11.00;2.70;;;;;;;8.43;100.00;98815.41;5069721;28;20112;-94
2022/06/20 05:58:58;;;;;;;11.52;2.63;;;;;;;8.49;100.00;98820.63;5091184;28;20067;-92
2022/06/20 06:01:32;;;;;;;11.25;2.40;;;;;;;8.52;100.00;98818.91;5073661;28;20015;-92
2022/06/20 06:04:02;;;;;;;12.18;2.42;;;;;;;8.65;100.00;98824.09;5083986;28;20055;-91
2022/06/20 06:06:39;;;;;;;10.75;2.40;;;;;;;8.58;100.00;98819.78;5068830;28;20027;-92
2022/06/20 06:09:21;;;;;;;9.48;2.15;;;;;;;8.66;100.00;98815.44;5071873;28;20080;-91
2022/06/20 06:12:18;;;;;;;13.00;2.58;;;;;;;8.74;100.00;98825.81;5077199;28;20105;-90
2022/06/20 06:14:55;;;;;;;9.32;2.40;;;;;;;8.91;100.00;98818.00;5087553;28;20095;-91
2022/06/20 06:17:31;;;;;;;11.25;1.95;;;;;;;8.92;100.00;98809.34;5084653;28;20036;-90
2022/06/20 06:20:02;;;;;;;9.90;2.25;;;;;;;8.91;100.00;98810.19;5086481;28;20013;-93
2022/06/20 06:22:34;;;;;;;10.52;2.40;;;;;;;9.02;100.00;98821.47;5081891;28;20086;-93
2022/06/20 06:25:21;;;;;;;11.07;2.33;;;;;;;9.02;100.00;98827.53;5075692;28;20044;-92
2022/06/20 06:28:00;;;;;;;8.73;1.88;;;;;;;9.11;100.00;98824.03;5074167;28;20088;-92
2022/06/20 06:34:21;;;;;;;;;;;;;;;9.27;100.00;98818.78;5037022;28;20065;-93
2022/06/20 06:36:54;;;;;;;9.52;2.08;;;;;;;9.26;100.00;98814.47;5035468;28;20011;-96
2022/06/20 06:39:43;;;;;;;7.78;1.90;;;;;;;9.17;100.00;98807.53;5039220;28;20040;-94
2022/06/20 06:42:15;;;;;;;10.15;2.25;;;;;;;9.36;100.00;98810.97;5023178;28;20037;-92
2022/06/20 06:44:49;;;;;;;10.48;2.58;;;;;;;9.38;100.00;98810.09;5035236;28;20029;-96
2022/06/20 06:47:41;;;;;;;10.82;2.35;;;;;;;9.37;100.00;98812.72;5023093;28;20025;-96
2022/06/20 06:50:33;;;;;;;8.38;2.17;;;;;;;9.48;100.00;98804.88;5031116;28;20474;-96
2022/06/20 06:53:16;;;;;;;10.75;2.45;;;;;;;9.43;100.00;98817.88;5041624;28;20512;-96
2022/06/20 06:56:01;;;;;;;11.02;2.40;;;;;;;9.46;100.00;98804.00;5045701;28;20029;-96
2022/06/20 06:58:43;;;;;;;8.98;2.42;;;;;;;9.82;100.00;98802.09;5046609;28;20028;-96
2022/06/20 07:01:53;;;;;;;9.18;2.28;;;;;;;9.88;100.00;98792.50;5032034;28;20033;-96
2022/06/20 07:04:44;;;;;;;9.25;2.40;;;;;;;9.76;100.00;98792.56;5028649;28;20009;-96
2022/06/20 07:07:18;;;;;;;8.75;1.83;;;;;;;9.95;100.00;98789.84;5027528;28;20041;-95
2022/06/20 07:09:50;;;;;;;10.00;2.40;;;;;;;10.02;100.00;98788.94;5028921;28;20033;-96
2022/06/20 07:12:58;;;;;;;10.20;2.40;;;;;;;10.03;100.00;98788.06;5032136;28;20057;-96
2022/06/20 07:15:26;;;;;;;10.48;2.33;;;;;;;10.18;100.00;98784.50;4996842;28;20026;-96
2022/06/20 07:18:03;;;;;;;11.30;2.45;;;;;;;10.36;100.00;98793.97;4997541;28;20069;-96
2022/06/20 07:20:35;;;;;;;11.70;2.30;;;;;;;10.27;100.00;98794.88;4999315;28;20144;-96
2022/06/20 07:23:04;;;;;;;11.15;2.20;;;;;;;10.33;100.00;98800.03;4972638;28;20105;-94
2022/06/20 07:25:35;;;;;;;9.65;2.13;;;;;;;10.40;100.00;98787.84;4991982;28;20062;-94
2022/06/20 07:28:29;;;;;;;9.18;2.13;;;;;;;10.10;100.00;98792.38;4979609;28;20031;-96
2022/06/20 07:31:37;;;;;;;10.65;2.30;;;;;;;10.12;100.00;98801.06;4966736;28;20134;-96
2022/06/20 07:34:42;;;;;;;12.00;2.53;;;;;;;10.05;100.00;98799.38;4996702;28;20047;-96
2022/06/20 07:37:34;;;;;;;10.35;2.47;;;;;;;10.18;100.00;98807.97;4996834;28;20133;-96
2022/06/20 07:40:17;;;;;;;8.43;2.28;;;;;;;10.16;100.00;98796.66;4984811;28;20053;-96
2022/06/20 07:43:02;;;;;;;8.70;2.25;;;;;;;9.94;100.00;98811.56;5079515;22;20116;-89
2022/06/20 07:45:50;;;;;;;9.27;2.10;;;;;;;9.82;100.00;98810.75;5052357;28;20035;-89
2022/06/20 07:48:30;;;;;;;10.20;2.17;;;;;;;10.00;100.00;98804.59;5070413;28;20253;-90
2022/06/20 07:51:06;;;;;;;8.30;2.08;;;;;;;10.31;100.00;98806.13;5054635;28;21582;-90
2022/06/20 07:53:46;;;;;;;11.63;2.40;;;;;;;10.33;100.00;98804.38;5067107;28;20563;-89
2022/06/20 07:56:21;;;;;;;10.45;2.25;;;;;;;10.64;100.00;98801.56;5055617;28;20049;-90
2022/06/20 07:59:03;;;;;;;9.57;2.20;;;;;;;10.40;100.00;98799.13;5071490;28;20159;-89
2022/06/20 08:01:49;;;;;;;11.20;2.45;;;;;;;10.72;100.00;98792.78;5056298;28;20043;-89
2022/06/20 08:04:18;;;;;;;9.68;2.40;;;;;;;10.84;100.00;98785.72;5057774;28;20032;-90
2022/06/20 08:07:01;;;;;;;13.70;2.88;;;;;;;10.94;100.00;98784.75;5052507;28;20055;-89
2022/06/20 08:09:38;;;;;;;8.07;2.35;;;;;;;11.05;100.00;98784.63;5074747;28;20033;-90
2022/06/20 08:12:04;;;;;;;10.63;2.45;;;;;;;11.32;100.00;98780.00;5066974;28;20060;-89
2022/06/20 08:14:43;;;;;;;10.07;2.20;;;;;;;10.75;100.00;98787.53;5055792;28;20047;-89
2022/06/20 08:17:10;;;;;;;10.10;2.25;;;;;;;10.87;100.00;98783.06;5066967;28;20048;-89
2022/06/20 08:19:39;;;;;;;11.95;2.40;;;;;;;10.69;100.00;98795.44;5048581;28;20067;-89
2022/06/20 08:22:16;;;;;;;8.63;2.13;;;;;;;10.51;100.00;98795.59;5045525;28;20041;-90
2022/06/20 08:24:48;;;;;;;10.93;2.40;;;;;;;10.60;100.00;98798.09;5056018;28;20107;-88
2022/06/20 08:27:48;;;;;;;8.50;2.42;;;;;;;10.65;100.00;98785.91;5048943;28;20032;-90
2022/06/20 08:30:40;;;;;;;10.27;2.40;;;;;;;10.77;100.00;98779.69;5057653;28;20051;-90
2022/06/20 08:33:34;;;;;;;7.07;2.10;;;;;;;10.88;100.00;98796.13;5052560;28;20106;-90
2022/06/20 08:36:26;;;;;;;7.80;2.17;;;;;;;10.95;100.00;98794.31;5076264;28;20008;-89
2022/06/20 08:38:58;;;;;;;10.05;2.15;;;;;;;11.08;100.00;98792.44;5096821;28;20024;-91
2022/06/20 08:41:37;;;;;;;12.20;2.80;;;;;;;11.28;100.00;98795.69;5080794;28;20032;-89
2022/06/20 08:44:24;;;;;;;8.77;1.95;;;;;;;11.14;100.00;98797.59;5068025;28;20384;-90
2022/06/20 08:47:06;;;;;;;7.68;2.08;;;;;;;11.46;100.00;98787.69;5063118;28;20100;-88
2022/06/20 08:49:51;;;;;;;8.38;2.35;;;;;;;11.60;100.00;98781.38;5071290;28;20040;-90
2022/06/20 08:52:20;;;;;;;6.85;2.08;;;;;;;11.50;100.00;98773.69;5077700;28;20419;-89
2022/06/20 08:55:17;;;;;;;7.85;1.90;;;;;;;11.75;100.00;98771.63;5076271;28;20135;-88
2022/06/20 08:58:13;;;;;;;9.25;2.33;;;;;;;11.63;100.00;98770.03;5083705;28;20503;-89
2022/06/20 09:00:57;;;;;;;8.50;2.03;;;;;;;11.78;100.00;98772.44;5058156;28;20089;-89
2022/06/20 09:03:50;;;;;;;8.75;2.08;;;;;;;11.76;100.00;98771.59;5074635;28;20024;-88
2022/06/20 09:07:01;;;;;;;10.00;2.45;;;;;;;12.13;100.00;98771.09;5055458;28;20032;-89
2022/06/20 09:09:55;;;;;;;8.65;1.92;;;;;;;12.30;100.00;98764.72;5049152;28;20092;-88
2022/06/20 09:12:24;;;;;;;;;;;;;;;12.46;100.00;98760.13;5066037;28;20048;-91
2022/06/20 09:15:14;;;;;;;8.05;2.08;;;;;;;12.53;100.00;98764.38;5066602;28;19927;-90
2022/06/20 09:18:11;;;;;;;9.05;2.33;;;;;;;12.38;100.00;98772.47;5055999;28;20042;-88
2022/06/20 09:20:58;;;;;;;13.90;2.70;;;;;;;12.51;100.00;98767.91;5060236;28;20029;-88
2022/06/20 09:23:56;;;;;;;35.67;5.78;;;;;;;13.17;100.00;98769.31;5084219;28;20036;-89
2022/06/20 09:26:46;;;;;;;7.75;2.05;;;;;;;13.34;100.00;98762.91;5055016;28;20089;-88
2022/06/20 09:30:06;;;;;;;22.50;2.67;;;;;;;12.83;100.00;98759.47;5073415;28;20028;-90
2022/06/20 09:32:53;;;;;;;16.63;3.10;;;;;;;13.14;100.00;98772.88;4947895;28;20083;-90
2022/06/20 09:35:30;;;;;;;9.77;2.67;;;;;;;13.10;100.00;98772.97;4950456;28;20031;-90
2022/06/20 09:38:08;;;;;;;7.30;1.88;;;;;;;12.80;100.00;98775.25;4950617;28;20031;-90
2022/06/20 09:41:21;;;;;;;8.82;2.38;;;;;;;12.45;100.00;98776.72;4953155;28;20103;-90
2022/06/20 09:44:02;;;;;;;12.40;2.30;;;;;;;12.86;100.00;98774.25;4947990;28;20145;-90
2022/06/20 09:46:49;;;;;;;9.20;2.38;;;;;;;13.61;100.00;98778.09;4950403;28;20043;-89
2022/06/20 09:50:03;;;;;;;8.05;2.28;;;;;;;13.54;100.00;98773.88;4954129;28;20030;-89
2022/06/20 09:52:42;;;;;;;10.43;2.10;;;;;;;13.39;100.00;98780.28;4924350;28;20643;-89
2022/06/20 09:55:19;;;;;;;9.65;2.25;;;;;;;13.03;100.00;98769.59;4950534;28;20067;-88
2022/06/20 09:58:08;;;;;;;10.70;2.30;;;;;;;13.21;100.00;98757.03;4939410;28;20042;-96
2022/06/20 10:00:44;;;;;;;9.15;2.40;;;;;;;13.58;100.00;98772.03;4951573;28;20607;-90
2022/06/20 10:03:30;;;;;;;10.93;2.65;;;;;;;13.28;100.00;98774.38;4943675;28;20043;-90
2022/06/20 10:06:29;;;;;;;10.20;2.67;;;;;;;12.98;100.00;98774.94;4971144;28;20120;-89
2022/06/20 10:09:11;;;;;;;9.98;2.90;;;;;;;13.15;100.00;98771.09;5046842;28;20115;-89
2022/06/20 10:12:04;;;;;;;9.88;2.58;;;;;;;13.68;100.00;98775.31;5073015;28;20028;-89
2022/06/20 10:14:40;;;;;;;10.27;2.50;;;;;;;15.89;100.00;98774.97;5022175;28;20028;-90
2022/06/20 10:17:24;;;;;;;8.60;2.40;;;;;;;16.38;100.00;98768.13;5057499;28;20044;-90
2022/06/20 10:20:05;;;;;;;9.32;2.40;;;;;;;17.10;100.00;98750.84;5053281;28;20053;-89
2022/06/20 10:22:57;;;;;;;8.23;2.22;;;;;;;16.34;100.00;98751.59;5065977;28;20718;-88
2022/06/20 10:25:54;;;;;;;7.25;2.22;;;;;;;15.20;100.00;98757.66;5069079;28;20035;-88
2022/06/20 10:28:37;;;;;;;7.43;2.05;;;;;;;16.06;100.00;98750.75;4962101;28;20034;-90
2022/06/20 10:31:18;;;;;;;8.38;2.45;;;;;;;15.80;100.00;98761.19;4951639;28;20035;-90
2022/06/20 10:34:10;;;;;;;7.40;2.40;;;;;;;15.55;100.00;98750.50;4962273;28;20212;-90
2022/06/20 10:36:52;;;;;;;8.40;2.30;;;;;;;15.22;100.00;98745.31;4941185;28;20079;-90
2022/06/20 10:39:38;;;;;;;8.50;2.13;;;;;;;16.85;100.00;98749.03;4967739;28;20068;-89
2022/06/20 10:42:43;;;;;;;9.75;2.17;;;;;;;16.92;100.00;98752.34;4969274;28;20053;-89
2022/06/20 10:45:24;;;;;;;9.60;2.10;;;;;;;17.53;100.00;98736.94;4957900;28;20026;-89
2022/06/20 10:51:13;;;;;;;7.57;2.10;;;;;;;16.60;100.00;98747.22;5113432;27;20637;-89
2022/06/20 10:54:31;;;;;;;8.10;2.35;;;;;;;17.38;100.00;98725.19;5094626;28;20048;-90
2022/06/20 10:57:10;;;;;;;10.05;2.10;;;;;;;17.70;100.00;98736.31;5071080;28;20039;-90
2022/06/20 10:59:38;;;;;;;7.25;2.20;;;;;;;16.91;100.00;98734.81;5091361;28;20047;-89
2022/06/20 11:02:41;;;;;;;7.10;2.10;;;;;;;16.34;100.00;98741.09;5100633;28;20132;-91
2022/06/20 11:05:28;;;;;;;9.13;2.20;;;;;;;15.80;100.00;98744.56;5091929;28;20026;-89
2022/06/20 11:08:09;;;;;;;9.07;2.17;;;;;;;15.29;100.00;98746.00;5094339;28;20032;-89
2022/06/20 11:10:53;;;;;;;7.45;2.20;;;;;;;16.57;100.00;98741.22;5101457;28;20052;-90
2022/06/20 11:13:27;;;;;;;8.90;2.20;;;;;;;17.11;100.00;98739.41;5096871;28;20110;-90
2022/06/20 11:15:55;;;;;;;8.45;2.13;;;;;;;16.80;100.00;98737.78;5095011;28;20035;-90
2022/06/20 11:18:24;;;;;;;8.10;2.08;;;;;;;16.86;100.00;98737.59;5097800;28;20032;-89
2022/06/20 11:20:58;;;;;;;9.70;2.30;;;;;;;17.54;100.00;98740.44;5096515;28;20449;-90
2022/06/20 11:23:40;;;;;;;8.10;2.47;;;;;;;17.87;100.00;98734.75;5098238;28;20063;-90
2022/06/20 11:26:32;;;;;;;7.25;2.17;;;;;;;17.54;100.00;98740.44;5103842;28;20067;-89
2022/06/20 11:29:30;;;;;;;8.48;2.30;;;;;;;17.47;100.00;98724.00;5107310;28;20032;-89
2022/06/20 11:32:14;;;;;;;10.00;2.50;;;;;;;17.84;100.00;98725.22;5108501;28;20084;-89
2022/06/20 11:35:16;;;;;;;7.38;2.20;;;;;;;18.68;100.00;98714.78;5104704;28;20066;-88
2022/06/20 11:38:37;;;;;;;8.93;2.08;;;;;;;17.99;100.00;98713.22;5106160;28;20058;-89
2022/06/20 11:42:00;;;;;;;9.40;2.40;;;;;;;17.99;100.00;98715.00;5046028;28;20064;-92
2022/06/20 11:44:40;;;;;;;7.55;2.05;;;;;;;18.16;100.00;98709.91;4979367;28;20042;-90
2022/06/20 11:47:46;;;;;;;9.43;2.28;;;;;;;18.48;100.00;98702.41;4979108;28;20031;-90
2022/06/20 11:50:21;;;;;;;9.35;2.10;;;;;;;18.00;100.00;98707.00;4980370;28;20085;-90
2022/06/20 11:53:08;;;;;;;6.43;1.98;;;;;;;17.91;100.00;98697.69;4979458;28;20221;-90
2022/06/20 11:55:39;;;;;;;8.18;2.00;;;;;;;18.63;100.00;98685.06;4976347;28;20310;-89
2022/06/20 11:58:31;;;;;;;8.65;2.60;;;;;;;18.23;100.00;98686.72;4984873;28;20144;-89
2022/06/20 12:01:16;;;;;;;7.60;2.38;;;;;;;17.89;100.00;98688.09;4968898;28;20031;-89
2022/06/20 12:03:59;;;;;;;7.03;2.17;;;;;;;18.64;100.00;98680.66;4972725;28;20050;-89
2022/06/20 12:06:35;;;;;;;7.38;2.15;;;;;;;19.82;100.00;98681.50;4970636;28;20035;-88
2022/06/20 12:09:41;;;;;;;7.82;2.30;;;;;;;19.71;100.00;98682.84;4984798;28;20087;-89
2022/06/20 12:12:28;;;;;;;7.10;1.80;;;;;;;18.41;89.04;98674.53;4973586;28;20088;-90
2022/06/20 12:15:22;;;;;;;8.32;2.10;;;;;;;18.49;89.43;98671.59;4992196;28;20107;-89
2022/06/20 12:18:19;;;;;;;9.27;2.20;;;;;;;18.76;95.86;98683.59;5065171;28;20048;-89
2022/06/20 12:23:46;;;;;;;7.38;2.05;;;;;;;18.69;93.65;98679.53;5089543;28;20096;-89
2022/06/20 12:26:13;;;;;;;8.57;2.13;;;;;;;18.58;90.39;98679.13;5083438;28;20044;-89
2022/06/20 12:28:48;;;;;;;8.35;2.53;;;;;;;18.64;90.38;98670.06;5050187;28;20040;-89
2022/06/20 12:31:21;;;;;;;8.27;2.35;;;;;;;18.55;89.82;98666.91;5051104;28;20044;-89
2022/06/20 12:33:56;;;;;;;8.07;2.08;;;;;;;19.12;92.23;98665.34;5046266;28;20040;-89
2022/06/20 12:36:35;;;;;;;7.30;1.90;;;;;;;19.26;89.55;98668.19;5060400;28;20021;-90
2022/06/20 12:39:09;;;;;;;8.70;2.20;;;;;;;19.15;91.49;98666.06;5063375;28;20032;-90
2022/06/20 12:41:42;;;;;;;8.30;2.10;;;;;;;19.21;90.38;98662.28;5071459;28;20031;-90
2022/06/20 12:44:20;;;;;;;6.53;2.40;;;;;;;19.69;84.11;98660.03;5060737;28;20100;-89